Ashland, Maine
Current Conditions -  °F | °C
As of 5:15 PM on Saturday 20 Dec 2014 (Local Time) from KPQI Reporting Station
Overcast Overcast  
Wind Chill: -13°   Ceiling: 1200
Heat Index: -8°   Visibility: 10mi
Dew Point: -16°   Wind: 6mph
Humidity: 53%   Direction: 360°N
Pressure: 30.35"   Gusts: NA
Location:  46.63°N, 68.41°W
Report Text: KPQI 202215Z AUTO 36005KT 10SM OVC012 M08/M16 A3035 RMK AO1
Loading
Personal Weather Stations






























Interactive Weather Map New forecast layout! Learn more

10-Day Weather Forecast

Advertisements
Track Severe Weather on mobile